createdAt,value
2022-10-11T06:01:30.646Z,9.27
2022-10-11T06:03:58.376Z,7.30
2022-10-11T06:08:55.511Z,8.77
2022-10-11T06:11:25.443Z,10.18
2022-10-11T06:13:58.157Z,7.65
2022-10-11T06:16:32.076Z,8.07
2022-10-11T06:21:37.554Z,8.75
2022-10-11T06:24:04.891Z,9.00
2022-10-11T06:26:32.365Z,11.40
2022-10-11T06:29:02.464Z,10.60
2022-10-11T06:31:29.720Z,8.85
2022-10-11T06:33:59.072Z,13.52
2022-10-11T06:36:26.711Z,12.98
2022-10-11T06:38:54.353Z,11.77
2022-10-11T06:41:22.877Z,8.65
2022-10-11T06:43:50.207Z,7.97
2022-10-11T06:46:23.480Z,15.10
2022-10-11T06:48:51.112Z,11.55
2022-10-11T06:51:20.432Z,11.07
2022-10-11T06:53:58.088Z,9.40
2022-10-11T06:56:30.402Z,9.75
2022-10-11T06:58:58.135Z,9.93
2022-10-11T07:01:26.076Z,9.77
2022-10-11T07:04:03.193Z,14.48
2022-10-11T07:06:30.830Z,9.77
2022-10-11T07:09:00.042Z,8.85
2022-10-11T07:11:35.773Z,8.98
2022-10-11T07:14:06.201Z,8.60
2022-10-11T07:16:35.172Z,10.88
2022-10-11T07:19:05.693Z,9.52
2022-10-11T07:21:41.399Z,9.32
2022-10-11T07:24:10.435Z,15.85
2022-10-11T07:26:38.292Z,26.95
2022-10-11T07:29:07.823Z,36.92
2022-10-11T07:31:35.204Z,18.00
2022-10-11T07:34:10.138Z,12.70
2022-10-11T07:36:47.613Z,9.75
2022-10-11T07:39:22.579Z,11.98
2022-10-11T07:41:59.865Z,10.65
2022-10-11T07:44:34.405Z,12.88
2022-10-11T07:47:02.050Z,13.30
2022-10-11T07:49:29.257Z,13.00
2022-10-11T07:52:06.569Z,11.68
2022-10-11T07:54:40.917Z,10.03
2022-10-11T07:57:08.322Z,15.85
2022-10-11T07:59:47.824Z,15.50
2022-10-11T08:02:23.252Z,17.95
2022-10-11T08:05:01.344Z,16.83
2022-10-11T08:07:42.307Z,12.00
2022-10-11T08:10:18.992Z,17.88
2022-10-11T08:12:48.205Z,15.00
2022-10-11T08:15:22.571Z,13.55
2022-10-11T08:17:49.543Z,19.20
2022-10-11T08:20:22.520Z,15.57
2022-10-11T08:22:49.997Z,15.27
2022-10-11T08:25:18.720Z,12.15
2022-10-11T08:27:45.971Z,15.10
2022-10-11T08:30:13.511Z,12.30
2022-10-11T08:32:40.298Z,12.10
2022-10-11T08:35:07.568Z,12.10
2022-10-11T08:37:34.661Z,10.68
2022-10-11T08:40:04.265Z,12.73
2022-10-11T08:42:45.178Z,11.13
2022-10-11T08:45:29.799Z,8.35
2022-10-11T08:48:18.113Z,8.63
2022-10-11T08:50:52.954Z,8.60
2022-10-11T08:53:41.292Z,10.63
2022-10-11T08:56:13.575Z,7.47
2022-10-11T08:59:00.709Z,13.48
2022-10-11T09:01:57.183Z,8.32
2022-10-11T09:08:00.746Z,8.95
2022-10-11T09:11:39.787Z,6.72
2022-10-11T09:14:36.808Z,8.00
2022-10-11T09:17:33.547Z,8.35
2022-10-11T09:20:26.330Z,8.07
2022-10-11T09:26:59.025Z,8.60
2022-10-11T09:29:34.835Z,8.23
2022-10-11T09:32:09.794Z,5.45
2022-10-11T09:34:38.418Z,5.18
2022-10-11T09:37:56.039Z,7.07
2022-10-11T09:40:52.706Z,5.28
2022-10-11T09:43:22.888Z,7.88
2022-10-11T09:45:49.916Z,9.25
2022-10-11T09:48:24.897Z,7.35
2022-10-11T09:50:52.855Z,7.82
2022-10-11T09:53:33.259Z,4.65
2022-10-11T09:56:06.323Z,4.97
2022-10-11T09:58:33.746Z,6.65
2022-10-11T10:01:08.610Z,7.18
2022-10-11T10:03:40.278Z,8.88
2022-10-11T10:06:26.286Z,5.55
2022-10-11T10:08:53.277Z,5.32
2022-10-11T10:11:23.535Z,5.72
2022-10-11T10:13:51.339Z,4.95
2022-10-11T10:16:30.775Z,6.25
2022-10-11T10:19:29.190Z,5.47
2022-10-11T10:22:02.088Z,8.18
2022-10-11T10:24:42.383Z,7.10
2022-10-11T10:27:17.154Z,10.45
2022-10-11T10:30:03.548Z,7.53
2022-10-11T10:33:00.218Z,7.00
2022-10-11T10:35:27.623Z,8.50
2022-10-11T10:38:27.058Z,8.95
2022-10-11T10:41:03.475Z,6.00
2022-10-11T10:43:40.433Z,7.50
2022-10-11T10:46:19.439Z,6.72
2022-10-11T10:49:23.610Z,8.05
2022-10-11T10:51:42.747Z,6.78
2022-10-11T10:54:14.846Z,5.82
2022-10-11T10:56:58.819Z,6.40
2022-10-11T10:59:37.366Z,5.35
2022-10-11T11:02:35.524Z,5.83
2022-10-11T11:05:41.832Z,5.75
2022-10-11T11:08:34.851Z,5.80
2022-10-11T11:11:33.693Z,6.15
2022-10-11T11:14:09.367Z,4.25
2022-10-11T11:16:57.467Z,5.47
2022-10-11T11:20:02.051Z,7.93
2022-10-11T11:22:39.002Z,7.40
2022-10-11T11:30:46.307Z,6.25
2022-10-11T11:33:22.304Z,8.30
2022-10-11T11:36:01.151Z,6.15
2022-10-11T11:38:38.647Z,6.75
2022-10-11T11:41:19.044Z,6.88
2022-10-11T11:43:52.863Z,7.82
2022-10-11T11:46:32.066Z,5.55
2022-10-11T11:49:06.835Z,6.20
2022-10-11T11:51:41.659Z,12.00
2022-10-11T11:54:16.910Z,6.75
2022-10-11T11:57:15.954Z,8.45
2022-10-11T12:00:14.622Z,5.88
2022-10-11T12:03:10.576Z,4.10
2022-10-11T12:05:38.309Z,5.47
2022-10-11T12:08:39.793Z,8.18
2022-10-11T12:11:25.134Z,4.70
2022-10-11T12:13:59.849Z,5.00
2022-10-11T12:16:27.909Z,4.32
2022-10-11T12:19:02.800Z,7.30
2022-10-11T12:21:45.042Z,5.50
2022-10-11T12:24:21.157Z,12.90
2022-10-11T12:26:56.926Z,16.55
2022-10-11T12:29:55.329Z,6.47
2022-10-11T12:32:31.417Z,4.35
2022-10-11T12:35:34.264Z,4.45
2022-10-11T12:38:10.015Z,7.75
2022-10-11T12:40:42.596Z,4.28
2022-10-11T12:43:14.195Z,5.20
2022-10-11T12:45:48.122Z,5.30
2022-10-11T12:51:02.946Z,7.83
2022-10-11T12:53:30.948Z,7.03
2022-10-11T12:56:32.035Z,6.80
2022-10-11T12:59:06.848Z,6.97
2022-10-11T13:02:28.735Z,4.50
2022-10-11T13:05:03.561Z,6.13
2022-10-11T13:07:41.615Z,5.68
2022-10-11T13:10:14.124Z,5.65
2022-10-11T13:12:50.042Z,5.05
2022-10-11T13:15:18.835Z,3.42
2022-10-11T13:17:45.818Z,4.30
2022-10-11T13:20:15.987Z,4.25
2022-10-11T13:22:43.339Z,4.18
2022-10-11T13:25:17.497Z,5.50
2022-10-11T13:27:55.258Z,5.05
2022-10-11T13:30:33.006Z,4.93
2022-10-11T13:33:09.856Z,4.72
2022-10-11T13:35:37.892Z,6.07
2022-10-11T13:38:09.168Z,6.28
2022-10-11T13:40:36.615Z,4.25
2022-10-11T13:43:06.339Z,6.47
2022-10-11T13:45:37.110Z,4.60
2022-10-11T13:48:07.088Z,5.72
